Time;durP1;ratioP1;P1;durP2;ratioP2;P2;SDS_P1;SDS_P2;PMS_P1;PMS_P2;Temp;Humidity;BMP_temperature;BMP_pressure;BME280_temperature;BME280_humidity;BME280_pressure;Samples;Min_cycle;Max_cycle;Signal;HPM_P1;HPM_P2
2021/09/20 00:00:48;;;;;;;18.30;15.95;;;9.30;99.90;;;;;;5017000;28;20059;-86
2021/09/20 00:03:15;;;;;;;21.90;15.10;;;9.20;99.90;;;;;;5017202;28;20414;-86
2021/09/20 00:05:42;;;;;;;16.67;14.85;;;9.10;99.90;;;;;;5035431;28;20055;-85
2021/09/20 00:08:09;;;;;;;19.88;16.45;;;9.00;99.90;;;;;;5024604;28;20113;-86
2021/09/20 00:10:36;;;;;;;21.30;17.48;;;8.80;99.90;;;;;;5052607;28;20140;-86
2021/09/20 00:13:03;;;;;;;20.63;16.20;;;8.70;99.90;;;;;;5016767;28;20490;-86
2021/09/20 00:15:30;;;;;;;21.25;16.48;;;8.70;99.90;;;;;;5016984;28;20490;-86
2021/09/20 00:17:57;;;;;;;23.80;16.77;;;8.80;99.90;;;;;;5016672;28;20068;-86
2021/09/20 00:20:23;;;;;;;23.30;18.13;;;8.80;99.90;;;;;;5033369;28;20045;-86
2021/09/20 00:22:52;;;;;;;22.63;17.83;;;8.90;99.90;;;;;;5016836;28;20061;-86
2021/09/20 00:25:19;;;;;;;23.33;18.05;;;8.90;99.90;;;;;;5016359;28;20055;-86
2021/09/20 00:27:46;;;;;;;20.20;17.08;;;9.00;99.90;;;;;;5016826;28;20061;-86
2021/09/20 00:30:13;;;;;;;23.70;17.90;;;8.90;99.90;;;;;;5016635;28;20469;-86
2021/09/20 00:32:40;;;;;;;19.67;16.48;;;9.00;99.90;;;;;;5033940;28;20051;-85
2021/09/20 00:35:07;;;;;;;22.60;17.15;;;9.00;99.90;;;;;;5016091;28;20045;-86
2021/09/20 00:37:34;;;;;;;20.55;16.75;;;9.00;99.90;;;;;;5016356;28;20128;-85
2021/09/20 00:40:02;;;;;;;21.48;17.05;;;9.10;99.90;;;;;;5016492;28;20084;-86
2021/09/20 00:42:29;;;;;;;21.33;16.65;;;9.10;99.90;;;;;;5034073;28;20051;-86
2021/09/20 00:44:56;;;;;;;22.08;15.95;;;9.10;99.90;;;;;;5033898;28;20053;-86
2021/09/20 00:47:23;;;;;;;18.80;16.73;;;9.10;99.90;;;;;;5016941;28;20580;-86
2021/09/20 00:49:50;;;;;;;21.92;16.63;;;9.10;99.90;;;;;;5033933;28;20051;-86
2021/09/20 00:52:17;;;;;;;19.58;15.63;;;9.10;99.90;;;;;;5049343;28;20079;-86
2021/09/20 00:54:44;;;;;;;19.80;16.40;;;9.10;99.90;;;;;;5033856;28;20059;-86
2021/09/20 00:57:11;;;;;;;19.33;17.02;;;9.10;99.90;;;;;;5033670;28;20053;-86
2021/09/20 00:59:38;;;;;;;23.05;16.52;;;9.10;99.90;;;;;;5033814;28;20056;-86
2021/09/20 01:02:05;;;;;;;21.67;16.83;;;9.10;99.90;;;;;;5016349;28;20072;-86
2021/09/20 01:04:32;;;;;;;19.00;16.20;;;9.00;99.90;;;;;;5032828;28;20083;-86
2021/09/20 01:06:59;;;;;;;17.75;15.85;;;9.00;99.90;;;;;;5015359;28;20053;-86
2021/09/20 01:09:26;;;;;;;19.25;16.20;;;9.00;99.90;;;;;;5015915;28;20403;-85
2021/09/20 01:11:54;;;;;;;18.05;16.05;;;8.90;99.90;;;;;;5015870;28;20045;-85
2021/09/20 01:14:21;;;;;;;21.15;16.45;;;8.90;99.90;;;;;;5015784;28;20140;-86
2021/09/20 01:16:51;;;;;;;24.70;16.77;;;8.80;99.90;;;;;;5033093;28;20092;-86
2021/09/20 01:19:18;;;;;;;21.00;17.50;;;8.70;99.90;;;;;;5015312;28;20132;-86
2021/09/20 01:21:44;;;;;;;19.30;16.33;;;8.70;99.90;;;;;;5033095;28;20148;-86
2021/09/20 01:24:11;;;;;;;23.73;17.83;;;8.70;99.90;;;;;;5049249;28;20081;-86
2021/09/20 01:26:38;;;;;;;33.92;17.23;;;8.60;99.90;;;;;;5041039;28;20081;-86
2021/09/20 01:29:07;;;;;;;20.70;17.83;;;8.40;99.90;;;;;;5018598;28;20251;-86
2021/09/20 01:31:34;;;;;;;21.70;17.05;;;8.40;99.90;;;;;;5033629;28;20055;-86
2021/09/20 01:34:02;;;;;;;21.85;17.50;;;8.40;99.90;;;;;;5036895;28;20132;-86
2021/09/20 01:36:29;;;;;;;22.63;18.00;;;8.30;99.90;;;;;;5019725;28;20510;-86
2021/09/20 01:38:56;;;;;;;21.50;18.05;;;8.20;99.90;;;;;;5019687;28;20049;-86
2021/09/20 01:41:22;;;;;;;26.10;17.73;;;8.20;99.90;;;;;;5052590;28;20049;-86
2021/09/20 01:43:49;;;;;;;24.27;18.48;;;8.20;99.90;;;;;;5052648;28;20049;-86
2021/09/20 01:46:16;;;;;;;27.08;19.60;;;8.10;99.90;;;;;;5036963;28;20060;-86
2021/09/20 01:48:43;;;;;;;34.10;21.17;;;8.10;99.90;;;;;;5019440;28;20557;-86
2021/09/20 01:51:10;;;;;;;26.25;20.52;;;8.20;99.90;;;;;;5036774;28;20141;-85
2021/09/20 01:53:37;;;;;;;29.00;19.65;;;8.20;99.90;;;;;;5019688;28;20045;-86
2021/09/20 01:56:04;;;;;;;27.10;21.45;;;8.30;99.90;;;;;;5019466;28;20115;-86
2021/09/20 01:58:31;;;;;;;27.42;20.48;;;8.30;99.90;;;;;;5019517;28;20049;-86
2021/09/20 02:00:58;;;;;;;31.20;21.30;;;8.30;99.90;;;;;;5036443;28;20050;-86
2021/09/20 02:03:25;;;;;;;26.83;18.55;;;8.40;99.90;;;;;;5019149;28;20046;-85
2021/09/20 02:05:52;;;;;;;22.92;18.58;;;8.50;99.90;;;;;;5019129;28;20132;-86
2021/09/20 02:08:19;;;;;;;32.33;20.17;;;8.50;99.90;;;;;;5036310;28;20045;-86
2021/09/20 02:10:45;;;;;;;24.00;18.60;;;8.60;99.90;;;;;;5036755;28;20057;-86
2021/09/20 02:13:12;;;;;;;25.30;18.65;;;8.70;99.90;;;;;;5018954;28;20059;-86
2021/09/20 02:15:39;;;;;;;23.90;18.23;;;8.70;99.90;;;;;;5018940;28;20055;-86
2021/09/20 02:18:06;;;;;;;25.02;18.95;;;8.70;99.90;;;;;;5019002;28;20128;-86
2021/09/20 02:20:33;;;;;;;23.25;18.67;;;8.70;99.90;;;;;;5018724;28;20048;-86
2021/09/20 02:23:00;;;;;;;25.27;18.58;;;8.70;99.90;;;;;;5018761;28;20054;-86
2021/09/20 02:25:27;;;;;;;26.80;19.45;;;8.60;99.90;;;;;;5036437;28;20456;-86
2021/09/20 02:27:53;;;;;;;30.00;20.05;;;8.50;99.90;;;;;;5018731;28;20053;-86
2021/09/20 02:30:20;;;;;;;28.25;18.52;;;8.70;99.90;;;;;;5051652;28;20132;-86
2021/09/20 02:32:47;;;;;;;21.67;17.48;;;8.70;99.90;;;;;;5036065;28;20049;-86
2021/09/20 02:35:14;;;;;;;19.45;16.52;;;8.70;99.90;;;;;;5018530;28;20084;-86
2021/09/20 02:37:42;;;;;;;25.02;19.73;;;8.70;99.90;;;;;;5036200;28;20056;-86
2021/09/20 02:40:10;;;;;;;20.98;17.42;;;8.80;99.90;;;;;;5018746;28;20308;-86
2021/09/20 02:42:36;;;;;;;20.10;17.10;;;8.70;99.90;;;;;;5036265;28;20050;-86
2021/09/20 02:45:05;;;;;;;23.50;18.67;;;8.70;99.90;;;;;;5024691;28;20053;-86
2021/09/20 02:47:33;;;;;;;21.95;16.08;;;8.70;99.90;;;;;;5022455;28;20133;-86
2021/09/20 02:50:00;;;;;;;18.27;16.25;;;8.80;99.90;;;;;;5035876;28;20453;-86
2021/09/20 02:52:27;;;;;;;23.55;17.15;;;8.70;99.90;;;;;;5018385;28;20105;-86
2021/09/20 02:54:54;;;;;;;19.45;16.63;;;8.80;99.90;;;;;;5018175;28;20148;-86
2021/09/20 02:57:20;;;;;;;19.65;16.00;;;8.80;99.90;;;;;;5018127;28;20134;-86
2021/09/20 02:59:47;;;;;;;20.30;17.50;;;8.80;99.90;;;;;;5018387;28;20409;-85
2021/09/20 03:02:14;;;;;;;22.48;17.52;;;8.80;99.90;;;;;;5035662;28;20136;-87
2021/09/20 03:04:41;;;;;;;28.85;18.40;;;8.70;99.90;;;;;;5018297;28;20137;-86
2021/09/20 03:07:08;;;;;;;21.83;16.58;;;8.70;99.90;;;;;;5017994;28;20075;-86
2021/09/20 03:09:35;;;;;;;19.50;17.00;;;8.80;99.90;;;;;;5018016;28;20064;-86
2021/09/20 03:12:02;;;;;;;18.58;15.75;;;8.80;99.90;;;;;;5035312;28;20052;-85
2021/09/20 03:14:29;;;;;;;20.30;16.67;;;8.90;99.90;;;;;;5018130;28;20060;-86
2021/09/20 03:16:55;;;;;;;20.10;16.95;;;8.80;99.90;;;;;;5017875;28;20056;-86
2021/09/20 03:19:22;;;;;;;19.52;16.15;;;8.80;99.90;;;;;;5035512;28;20085;-86
2021/09/20 03:21:49;;;;;;;19.20;15.68;;;8.80;99.90;;;;;;5017878;28;20060;-86
2021/09/20 03:24:16;;;;;;;16.85;14.70;;;8.90;99.90;;;;;;5018100;28;20042;-86
2021/09/20 03:26:43;;;;;;;17.23;14.30;;;8.90;99.90;;;;;;5035042;28;20050;-86
2021/09/20 03:29:10;;;;;;;18.63;15.60;;;8.90;99.90;;;;;;5017870;28;20045;-86
2021/09/20 03:31:37;;;;;;;17.73;15.43;;;8.90;99.90;;;;;;5017865;28;20049;-86
2021/09/20 03:34:04;;;;;;;19.10;15.35;;;8.90;99.90;;;;;;5017591;28;20046;-86
2021/09/20 03:36:31;;;;;;;23.08;16.40;;;8.80;99.90;;;;;;5017808;28;20045;-86
2021/09/20 03:38:58;;;;;;;21.48;16.42;;;8.90;99.90;;;;;;5017017;28;20042;-86
2021/09/20 03:41:25;;;;;;;17.92;15.73;;;8.90;99.90;;;;;;5017407;28;20488;-86
2021/09/20 03:43:52;;;;;;;20.40;15.23;;;8.90;99.90;;;;;;5017622;28;20064;-86
2021/09/20 03:46:19;;;;;;;17.50;15.40;;;8.90;99.90;;;;;;5017606;28;20387;-86
2021/09/20 03:48:45;;;;;;;20.15;15.13;;;8.90;99.90;;;;;;5034617;28;20491;-86
2021/09/20 03:51:12;;;;;;;22.38;15.57;;;9.00;99.90;;;;;;5034495;28;20053;-86
2021/09/20 03:53:39;;;;;;;19.48;16.05;;;8.90;99.90;;;;;;5034537;28;20409;-86
2021/09/20 03:56:06;;;;;;;23.23;15.85;;;8.90;99.90;;;;;;5016205;28;20061;-86
2021/09/20 03:58:33;;;;;;;25.75;16.67;;;8.80;99.90;;;;;;5017045;28;20046;-86
2021/09/20 04:01:00;;;;;;;19.55;15.88;;;8.90;99.90;;;;;;5017096;28;20425;-86
2021/09/20 04:03:27;;;;;;;23.27;16.58;;;8.90;99.90;;;;;;5055318;28;20123;-86
2021/09/20 04:05:54;;;;;;;20.58;16.27;;;9.00;99.90;;;;;;5022361;28;20061;-86
2021/09/20 04:08:27;;;;;;;19.75;16.45;;;9.00;99.90;;;;;;5016704;28;20041;-86
2021/09/20 04:10:54;;;;;;;22.23;16.50;;;9.10;99.90;;;;;;5049957;28;20221;-86
2021/09/20 04:13:21;;;;;;;21.00;17.00;;;8.90;99.90;;;;;;5016904;28;20045;-86
2021/09/20 04:15:53;;;;;;;26.60;18.40;;;8.80;99.90;;;;;;5016617;28;20050;-86
2021/09/20 04:18:25;;;;;;;24.55;18.08;;;8.80;99.90;;;;;;5016839;28;20464;-86
2021/09/20 04:20:52;;;;;;;23.83;18.80;;;8.70;99.90;;;;;;5016471;28;20505;-86
2021/09/20 04:23:22;;;;;;;25.40;17.63;;;8.70;99.90;;;;;;5034052;28;20046;-86
2021/09/20 04:25:50;;;;;;;26.00;17.08;;;8.70;99.90;;;;;;5016415;28;20060;-86
2021/09/20 04:28:18;;;;;;;21.63;17.38;;;8.80;99.90;;;;;;5016885;28;20470;-86
2021/09/20 04:30:45;;;;;;;23.73;17.60;;;8.90;99.90;;;;;;5016744;28;20084;-85
2021/09/20 04:33:14;;;;;;;24.27;17.52;;;8.80;99.90;;;;;;5016155;28;20057;-86
2021/09/20 04:35:41;;;;;;;25.67;16.50;;;8.80;99.90;;;;;;5016452;28;20410;-86
2021/09/20 04:38:09;;;;;;;23.23;17.25;;;8.90;99.90;;;;;;5016244;28;20049;-86
2021/09/20 04:40:36;;;;;;;23.48;17.58;;;8.90;99.90;;;;;;5033833;28;20050;-86
2021/09/20 04:43:04;;;;;;;22.50;16.95;;;8.90;99.90;;;;;;5033473;28;20056;-86
2021/09/20 04:45:31;;;;;;;21.25;17.30;;;8.90;99.90;;;;;;5016281;28;20049;-85
2021/09/20 04:47:58;;;;;;;23.05;17.38;;;8.90;99.90;;;;;;5016280;28;20069;-86
2021/09/20 04:50:25;;;;;;;25.40;18.60;;;8.90;99.90;;;;;;5016456;28;20045;-86
2021/09/20 04:52:51;;;;;;;22.17;17.63;;;8.90;99.90;;;;;;5016151;28;20049;-86
2021/09/20 04:55:18;;;;;;;20.92;16.73;;;8.80;99.90;;;;;;5015999;28;20521;-86
2021/09/20 04:57:45;;;;;;;20.55;17.13;;;8.90;99.90;;;;;;5016112;28;20045;-86
2021/09/20 05:00:13;;;;;;;23.30;17.63;;;8.90;99.90;;;;;;5015807;28;20052;-86
2021/09/20 05:02:40;;;;;;;26.40;16.63;;;8.90;99.90;;;;;;5015981;28;20056;-86
2021/09/20 05:05:08;;;;;;;18.05;16.13;;;8.90;99.90;;;;;;5015753;28;20053;-85
2021/09/20 05:07:35;;;;;;;18.25;15.10;;;8.90;99.90;;;;;;5015473;28;20076;-86
2021/09/20 05:10:02;;;;;;;17.83;15.20;;;8.90;99.90;;;;;;5015455;28;20405;-86
2021/09/20 05:12:32;;;;;;;18.67;16.05;;;9.00;99.90;;;;;;5048384;28;20099;-86
2021/09/20 05:14:58;;;;;;;19.33;15.57;;;9.00;99.90;;;;;;5015403;28;20092;-85
2021/09/20 05:17:25;;;;;;;19.08;15.80;;;9.00;99.90;;;;;;5033279;28;20045;-86
2021/09/20 05:19:52;;;;;;;17.48;15.10;;;8.90;99.90;;;;;;5048834;28;20049;-86
2021/09/20 05:22:19;;;;;;;16.92;15.07;;;9.00;99.90;;;;;;5022671;28;20071;-86
2021/09/20 05:24:45;;;;;;;17.42;14.98;;;9.10;99.90;;;;;;5020825;28;20045;-85
2021/09/20 05:27:12;;;;;;;20.52;15.52;;;9.10;99.90;;;;;;5015405;28;20053;-86
2021/09/20 05:29:39;;;;;;;17.88;14.70;;;9.10;99.90;;;;;;5032830;28;20049;-86
2021/09/20 05:32:06;;;;;;;21.23;14.63;;;9.10;99.90;;;;;;5015726;28;20084;-86
2021/09/20 05:34:33;;;;;;;17.27;15.00;;;9.10;99.90;;;;;;5015699;28;20141;-86
2021/09/20 05:36:59;;;;;;;17.83;15.05;;;9.10;99.90;;;;;;5048153;28;20049;-85
2021/09/20 05:39:26;;;;;;;15.60;13.93;;;9.20;99.90;;;;;;5033053;28;20420;-86
2021/09/20 05:41:53;;;;;;;17.08;14.60;;;9.20;99.90;;;;;;5015352;28;20055;-86
2021/09/20 05:44:20;;;;;;;20.38;15.43;;;9.30;99.90;;;;;;5033029;28;20041;-85
2021/09/20 05:46:47;;;;;;;21.02;15.93;;;9.30;99.90;;;;;;5048165;28;20049;-86
2021/09/20 05:49:14;;;;;;;16.70;13.93;;;9.30;99.90;;;;;;5015509;28;20085;-85
2021/09/20 05:51:41;;;;;;;18.73;15.20;;;9.20;99.90;;;;;;5032904;28;20233;-86
2021/09/20 05:54:08;;;;;;;20.38;14.30;;;9.20;99.90;;;;;;5032857;28;20081;-86
2021/09/20 05:56:35;;;;;;;19.77;14.32;;;9.30;99.90;;;;;;5032528;28;20128;-85
2021/09/20 05:59:03;;;;;;;23.00;14.10;;;9.40;99.90;;;;;;5015250;28;20088;-86
2021/09/20 06:01:29;;;;;;;15.63;13.93;;;9.50;99.90;;;;;;5015443;28;20065;-86
2021/09/20 06:03:56;;;;;;;16.27;13.77;;;9.50;99.90;;;;;;5015371;28;20042;-86
2021/09/20 06:06:23;;;;;;;19.83;13.80;;;9.50;99.90;;;;;;5032400;28;20054;-86
2021/09/20 06:08:50;;;;;;;16.15;13.80;;;9.60;99.90;;;;;;5015491;28;20046;-85
2021/09/20 06:11:18;;;;;;;18.60;13.77;;;9.70;99.90;;;;;;5031010;28;20066;-85
2021/09/20 06:13:44;;;;;;;15.63;12.88;;;9.80;99.90;;;;;;5031532;28;20137;-85
2021/09/20 06:16:13;;;;;;;15.68;13.73;;;9.80;99.90;;;;;;5031736;28;20057;-86
2021/09/20 06:18:40;;;;;;;14.48;13.00;;;9.80;99.90;;;;;;5015190;28;20099;-86
2021/09/20 06:21:07;;;;;;;17.38;12.93;;;9.80;99.90;;;;;;5035270;28;20048;-86
2021/09/20 06:23:33;;;;;;;16.45;12.13;;;9.90;99.90;;;;;;5018745;28;20057;-86
2021/09/20 06:26:00;;;;;;;15.98;12.63;;;9.90;99.90;;;;;;5018724;28;20084;-85
2021/09/20 06:28:27;;;;;;;14.90;11.80;;;10.00;99.90;;;;;;5018855;28;20128;-86
2021/09/20 06:30:54;;;;;;;14.80;11.45;;;10.00;99.90;;;;;;5018833;28;20057;-86
2021/09/20 06:33:21;;;;;;;16.15;11.43;;;10.10;99.90;;;;;;5051627;28;20045;-85
2021/09/20 06:35:48;;;;;;;15.85;12.38;;;10.20;99.90;;;;;;5018575;28;20140;-86
2021/09/20 06:38:15;;;;;;;12.85;11.38;;;10.30;99.90;;;;;;5020222;28;20079;-86
2021/09/20 06:40:42;;;;;;;12.73;11.38;;;10.30;99.90;;;;;;5023016;28;20051;-86
2021/09/20 06:43:09;;;;;;;13.05;11.85;;;10.40;99.90;;;;;;5046072;28;20058;-85
2021/09/20 06:45:36;;;;;;;12.50;10.88;;;10.50;99.90;;;;;;5019315;28;20045;-86
2021/09/20 06:48:03;;;;;;;15.55;11.85;;;10.60;99.90;;;;;;5035820;28;20054;-86
2021/09/20 06:50:30;;;;;;;14.07;10.93;;;10.60;99.90;;;;;;5035896;28;20053;-86
2021/09/20 06:52:56;;;;;;;16.25;12.65;;;10.60;99.90;;;;;;5050851;28;20045;-85
2021/09/20 06:55:23;;;;;;;15.60;12.02;;;10.70;99.90;;;;;;5035840;28;20076;-85
2021/09/20 06:57:53;;;;;;;15.07;11.35;;;10.70;99.90;;;;;;5018391;28;20133;-85
2021/09/20 07:00:20;;;;;;;16.98;10.93;;;10.70;99.90;;;;;;5018345;28;20060;-85
2021/09/20 07:02:47;;;;;;;18.88;11.15;;;10.70;99.90;;;;;;5050987;28;20140;-85
2021/09/20 07:05:15;;;;;;;15.05;12.43;;;10.60;99.90;;;;;;5017992;28;20045;-86
2021/09/20 07:07:41;;;;;;;20.95;12.85;;;10.60;99.90;;;;;;5018161;28;20088;-86
2021/09/20 07:10:10;;;;;;;17.20;11.90;;;10.60;99.90;;;;;;5017870;28;20054;-86
2021/09/20 07:12:36;;;;;;;24.83;12.60;;;10.60;99.90;;;;;;5018038;28;20478;-85
2021/09/20 07:15:05;;;;;;;18.17;12.43;;;10.50;99.90;;;;;;5017725;28;20053;-85
2021/09/20 07:17:33;;;;;;;14.63;12.43;;;10.60;99.90;;;;;;5050785;28;20399;-85
2021/09/20 07:20:01;;;;;;;14.90;12.52;;;10.90;99.90;;;;;;5050565;28;20383;-85
2021/09/20 07:22:28;;;;;;;13.32;11.93;;;11.10;99.90;;;;;;5017879;28;20053;-86
2021/09/20 07:24:54;;;;;;;12.48;11.18;;;11.10;99.90;;;;;;5035028;28;20041;-85
2021/09/20 07:27:21;;;;;;;13.57;12.18;;;11.30;99.90;;;;;;5017803;28;20507;-85
2021/09/20 07:29:48;;;;;;;13.50;11.85;;;11.40;99.90;;;;;;5035007;28;20111;-86
2021/09/20 07:32:15;;;;;;;13.52;11.05;;;11.30;99.90;;;;;;5035047;28;20110;-85
2021/09/20 07:34:42;;;;;;;14.88;11.68;;;11.50;99.90;;;;;;5050262;28;20528;-86
2021/09/20 07:37:08;;;;;;;14.05;11.68;;;11.60;99.90;;;;;;5017244;28;20172;-86
2021/09/20 07:39:36;;;;;;;13.18;11.85;;;11.70;99.90;;;;;;5017556;28;20504;-85
2021/09/20 07:42:02;;;;;;;14.32;11.57;;;11.80;99.90;;;;;;5017200;28;20504;-85
2021/09/20 07:44:29;;;;;;;13.50;11.98;;;11.90;99.90;;;;;;5034882;28;20049;-85
2021/09/20 07:46:56;;;;;;;18.27;12.82;;;11.90;99.90;;;;;;5016939;28;20053;-85
2021/09/20 07:49:23;;;;;;;17.73;11.70;;;12.00;99.90;;;;;;5050181;28;20184;-85
2021/09/20 07:51:49;;;;;;;16.42;12.88;;;12.20;99.90;;;;;;5034799;28;20055;-85
2021/09/20 07:54:16;;;;;;;13.40;12.02;;;12.20;99.90;;;;;;5034872;28;20046;-85
2021/09/20 07:56:43;;;;;;;13.10;11.70;;;12.20;99.90;;;;;;5034402;28;20072;-85
2021/09/20 07:59:10;;;;;;;13.13;11.75;;;12.40;99.90;;;;;;5018503;28;20052;-86
2021/09/20 08:01:37;;;;;;;14.32;12.00;;;12.40;99.90;;;;;;5034134;28;20495;-85
2021/09/20 08:04:04;;;;;;;15.77;12.68;;;12.50;99.90;;;;;;5035169;28;20143;-86
2021/09/20 08:06:31;;;;;;;12.80;11.57;;;12.30;99.90;;;;;;5017007;28;20049;-85
2021/09/20 08:08:58;;;;;;;14.00;11.65;;;12.40;99.90;;;;;;5016887;28;20053;-85
2021/09/20 08:11:25;;;;;;;13.40;12.00;;;12.40;99.90;;;;;;5034031;28;20061;-85
2021/09/20 08:13:52;;;;;;;18.05;12.75;;;12.30;99.90;;;;;;5016822;28;20049;-85
2021/09/20 08:16:19;;;;;;;18.02;12.38;;;12.40;99.90;;;;;;5034142;28;20088;-85
2021/09/20 08:18:46;;;;;;;14.27;11.80;;;12.40;99.90;;;;;;5034045;28;20085;-85
2021/09/20 08:21:12;;;;;;;21.67;12.10;;;12.50;99.90;;;;;;5033901;28;20425;-85
2021/09/20 08:23:39;;;;;;;15.45;12.35;;;12.60;99.90;;;;;;5016309;28;20049;-85
2021/09/20 08:26:06;;;;;;;13.05;11.65;;;12.50;99.90;;;;;;5016437;28;20084;-85
2021/09/20 08:28:34;;;;;;;15.75;11.98;;;12.60;99.90;;;;;;5033905;28;20136;-85
2021/09/20 08:31:01;;;;;;;14.68;12.90;;;12.60;99.90;;;;;;5033788;28;20045;-86
2021/09/20 08:33:29;;;;;;;15.75;11.93;;;12.60;99.90;;;;;;5016489;28;20103;-83
2021/09/20 08:35:56;;;;;;;12.55;11.25;;;12.70;99.90;;;;;;5034042;28;20049;-86
2021/09/20 08:38:23;;;;;;;13.43;12.10;;;12.90;99.90;;;;;;5018118;28;20041;-85
2021/09/20 08:40:52;;;;;;;13.18;11.48;;;13.10;99.90;;;;;;5035609;28;20588;-85
2021/09/20 08:43:19;;;;;;;13.73;12.15;;;13.20;99.90;;;;;;5033016;28;20063;-84
2021/09/20 08:45:46;;;;;;;13.18;11.80;;;13.30;99.90;;;;;;5016020;28;20077;-85
2021/09/20 08:48:13;;;;;;;15.05;12.15;;;13.50;99.90;;;;;;5049240;28;20431;-84
2021/09/20 08:50:40;;;;;;;13.68;12.00;;;13.60;99.90;;;;;;5015984;28;20049;-86
2021/09/20 08:53:08;;;;;;;14.02;11.77;;;13.70;99.90;;;;;;5033242;28;20045;-85
2021/09/20 08:55:37;;;;;;;13.43;12.00;;;13.80;99.90;;;;;;5015795;28;20080;-85
2021/09/20 08:58:04;;;;;;;13.80;11.70;;;13.80;99.90;;;;;;5033239;28;20046;-86
2021/09/20 09:00:31;;;;;;;13.18;11.88;;;13.90;99.90;;;;;;5016282;28;20132;-85
2021/09/20 09:03:00;;;;;;;15.18;12.43;;;14.00;99.90;;;;;;5016099;28;20075;-85
2021/09/20 09:05:30;;;;;;;12.32;11.13;;;14.20;99.90;;;;;;5034316;28;20482;-86
2021/09/20 09:08:04;;;;;;;13.80;12.40;;;14.20;99.90;;;;;;5017796;28;20079;-86
2021/09/20 09:10:38;;;;;;;11.93;10.77;;;14.00;99.90;;;;;;5049278;28;20096;-85
2021/09/20 09:13:06;;;;;;;13.20;10.55;;;14.40;99.90;;;;;;5048600;28;20057;-86
2021/09/20 09:15:33;;;;;;;15.27;11.43;;;14.80;99.90;;;;;;5034122;28;20053;-85
2021/09/20 09:18:01;;;;;;;16.15;10.93;;;15.00;99.90;;;;;;5037176;28;20056;-84
2021/09/20 09:20:34;;;;;;;11.27;10.10;;;15.00;99.90;;;;;;5045864;28;20056;-83
2021/09/20 09:23:04;;;;;;;13.43;10.48;;;15.30;99.90;;;;;;5016084;28;20053;-85
2021/09/20 09:25:46;;;;;;;12.80;11.02;;;15.40;99.90;;;;;;5048475;28;20049;-86
2021/09/20 09:28:17;;;;;;;13.88;10.52;;;15.20;99.90;;;;;;5017520;28;20042;-86
2021/09/20 09:30:52;;;;;;;10.95;9.85;;;15.40;99.90;;;;;;5016190;28;20426;-84
2021/09/20 09:33:36;;;;;;;10.90;9.60;;;15.70;99.90;;;;;;5032730;28;20063;-83
2021/09/20 09:36:08;;;;;;;19.35;12.27;;;15.70;99.90;;;;;;5015772;28;20055;-84
2021/09/20 09:38:35;;;;;;;13.27;10.93;;;15.30;99.90;;;;;;5015472;28;20049;-84
2021/09/20 09:41:04;;;;;;;15.23;10.70;;;15.30;99.90;;;;;;5016029;28;20525;-84
2021/09/20 09:43:35;;;;;;;13.90;10.75;;;15.20;99.90;;;;;;5015089;28;20136;-83
2021/09/20 09:46:20;;;;;;;12.05;10.70;;;14.70;99.90;;;;;;5015012;28;20052;-83
2021/09/20 09:48:48;;;;;;;11.93;10.27;;;14.90;99.90;;;;;;5015349;28;20058;-83
2021/09/20 09:51:14;;;;;;;11.25;9.45;;;15.00;99.90;;;;;;5032684;28;20067;-83
2021/09/20 09:53:43;;;;;;;11.20;10.15;;;15.30;99.90;;;;;;5048525;28;20056;-84
2021/09/20 09:56:13;;;;;;;12.95;10.10;;;15.40;99.90;;;;;;5018996;28;20301;-83
2021/09/20 09:58:58;;;;;;;12.70;10.63;;;15.10;99.90;;;;;;5019449;28;20505;-84
2021/09/20 10:01:35;;;;;;;11.57;10.48;;;15.10;99.90;;;;;;5019401;28;20052;-84
2021/09/20 10:04:20;;;;;;;10.85;9.75;;;15.20;99.90;;;;;;5036742;28;20060;-84
2021/09/20 10:06:50;;;;;;;10.43;9.43;;;15.30;99.90;;;;;;5019011;28;20152;-85
2021/09/20 10:09:23;;;;;;;12.02;10.35;;;15.60;99.90;;;;;;5018912;28;20045;-85
2021/09/20 10:11:51;;;;;;;10.30;9.30;;;15.50;99.90;;;;;;5019169;28;20053;-83
2021/09/20 10:14:20;;;;;;;10.85;9.23;;;15.60;99.90;;;;;;5019151;28;20124;-84
2021/09/20 10:16:50;;;;;;;10.02;8.82;;;15.80;99.90;;;;;;5018474;28;20432;-85
2021/09/20 10:19:17;;;;;;;11.05;9.77;;;16.00;99.90;;;;;;5018589;28;20397;-86
2021/09/20 10:21:44;;;;;;;11.15;9.98;;;16.00;99.90;;;;;;5051465;28;20053;-85
2021/09/20 10:24:12;;;;;;;9.23;8.27;;;15.80;99.90;;;;;;5036241;28;20085;-85
2021/09/20 10:26:39;;;;;;;10.27;9.05;;;15.80;99.90;;;;;;5036177;28;20125;-86
2021/09/20 10:29:08;;;;;;;10.35;9.18;;;16.10;99.90;;;;;;5018489;28;20124;-86
2021/09/20 10:31:35;;;;;;;10.82;9.82;;;15.80;99.90;;;;;;5018613;28;20508;-85
2021/09/20 10:34:18;;;;;;;12.65;9.55;;;15.30;99.90;;;;;;5018729;28;20137;-85
2021/09/20 10:36:49;;;;;;;14.25;9.95;;;14.90;99.90;;;;;;5022574;28;20461;-86
2021/09/20 10:39:17;;;;;;;11.73;10.57;;;14.70;99.90;;;;;;5063575;28;20080;-85
2021/09/20 10:41:44;;;;;;;12.43;9.88;;;14.60;99.90;;;;;;5037242;28;20061;-85
2021/09/20 10:44:12;;;;;;;10.57;9.52;;;14.50;99.90;;;;;;5018404;28;20057;-85
2021/09/20 10:46:42;;;;;;;10.13;9.13;;;14.50;99.90;;;;;;5019503;28;20084;-85
2021/09/20 10:49:23;;;;;;;15.13;11.38;;;14.50;99.90;;;;;;5019347;28;20620;-84
2021/09/20 10:52:05;;;;;;;12.38;11.07;;;14.30;99.90;;;;;;5036779;28;20133;-84
2021/09/20 10:54:32;;;;;;;13.20;11.20;;;14.00;99.90;;;;;;5018253;28;20053;-85
2021/09/20 10:57:17;;;;;;;13.80;11.65;;;13.80;99.90;;;;;;5018139;28;20099;-85
2021/09/20 10:59:45;;;;;;;12.65;11.15;;;13.80;99.90;;;;;;5035778;28;20064;-85
2021/09/20 11:02:18;;;;;;;12.45;10.23;;;13.90;99.90;;;;;;5035610;28;20132;-85
2021/09/20 11:04:46;;;;;;;13.20;11.20;;;13.70;99.90;;;;;;5017446;28;20394;-85
2021/09/20 11:07:20;;;;;;;12.20;10.30;;;13.60;99.90;;;;;;5050625;28;20084;-85
2021/09/20 11:10:01;;;;;;;13.30;10.55;;;13.60;99.90;;;;;;5017944;28;20050;-85
2021/09/20 11:12:29;;;;;;;13.65;9.70;;;13.70;99.90;;;;;;5020300;28;20061;-85
2021/09/20 11:14:58;;;;;;;12.88;10.38;;;13.70;99.90;;;;;;5017873;28;20049;-86
2021/09/20 11:17:33;;;;;;;11.77;10.65;;;13.50;99.90;;;;;;5018202;28;20050;-86
2021/09/20 11:20:04;;;;;;;11.88;10.02;;;13.40;99.90;;;;;;5018060;28;20045;-85
2021/09/20 11:22:32;;;;;;;11.57;9.80;;;13.40;99.90;;;;;;5035222;28;20041;-85
2021/09/20 11:25:03;;;;;;;10.40;9.43;;;13.30;99.90;;;;;;5017535;28;20056;-85
2021/09/20 11:27:41;;;;;;;10.00;8.98;;;13.60;99.90;;;;;;5035194;28;20473;-85
2021/09/20 11:30:11;;;;;;;10.45;8.82;;;13.80;99.90;;;;;;5034920;28;20050;-85
2021/09/20 11:33:00;;;;;;;9.68;8.77;;;13.90;99.90;;;;;;5035148;28;20133;-85
2021/09/20 11:35:30;;;;;;;9.30;8.40;;;14.10;99.90;;;;;;5017617;28;20406;-85
2021/09/20 11:38:02;;;;;;;10.27;9.27;;;14.30;99.90;;;;;;5017317;28;20056;-85
2021/09/20 11:40:32;;;;;;;10.73;9.32;;;14.40;99.90;;;;;;5017704;28;20053;-85
2021/09/20 11:43:04;;;;;;;9.95;8.95;;;14.40;99.90;;;;;;5034534;28;20490;-85
2021/09/20 11:45:37;;;;;;;7.70;7.05;;;14.40;99.90;;;;;;5017136;28;20049;-85
2021/09/20 11:48:18;;;;;;;;;;;14.50;99.90;;;;;;5033733;28;20480;-85
2021/09/20 11:50:45;;;;;;;9.80;8.90;;;14.60;99.90;;;;;;5017124;28;19924;-85
2021/09/20 11:53:18;;;;;;;11.23;9.60;;;14.70;99.90;;;;;;5049928;28;20045;-85
2021/09/20 11:55:47;;;;;;;9.60;8.70;;;14.70;99.90;;;;;;5022590;28;20056;-85
2021/09/20 11:58:16;;;;;;;11.88;8.70;;;14.70;99.90;;;;;;5025870;28;20128;-85
2021/09/20 12:00:47;;;;;;;11.52;8.65;;;14.80;99.90;;;;;;5017406;28;20483;-85
2021/09/20 12:03:18;;;;;;;9.75;8.75;;;14.90;99.90;;;;;;5016957;28;20049;-84
2021/09/20 12:05:48;;;;;;;8.68;7.22;;;14.80;99.90;;;;;;5017343;28;20453;-85
2021/09/20 12:08:19;;;;;;;7.88;7.28;;;14.80;99.90;;;;;;5017135;28;20471;-86
2021/09/20 12:10:53;;;;;;;8.57;7.78;;;14.90;99.90;;;;;;5016897;28;20422;-84
2021/09/20 12:13:22;;;;;;;14.00;8.47;;;14.70;99.90;;;;;;5016884;28;20045;-84
2021/09/20 12:15:53;;;;;;;7.95;7.25;;;14.60;99.90;;;;;;5016271;28;20302;-84
2021/09/20 12:18:25;;;;;;;9.52;8.10;;;14.70;99.90;;;;;;5016236;28;20069;-85
2021/09/20 12:20:58;;;;;;;8.95;7.50;;;14.70;99.90;;;;;;5016481;28;20132;-84
2021/09/20 12:23:32;;;;;;;10.13;7.93;;;14.70;99.90;;;;;;5016529;28;20505;-85
2021/09/20 12:26:01;;;;;;;8.20;7.50;;;15.00;99.90;;;;;;5033809;28;20144;-84
2021/09/20 12:28:39;;;;;;;7.93;7.22;;;15.00;99.90;;;;;;5016682;28;20061;-85
2021/09/20 12:31:13;;;;;;;7.53;6.75;;;15.10;99.90;;;;;;5033363;28;20135;-85
2021/09/20 12:33:58;;;;;;;6.60;6.03;;;15.10;99.90;;;;;;5016473;28;20046;-84
2021/09/20 12:36:35;;;;;;;7.97;6.55;;;15.40;99.90;;;;;;5033791;28;20292;-84
2021/09/20 12:39:17;;;;;;;9.57;6.40;;;15.50;99.90;;;;;;5033731;28;20136;-84
2021/09/20 12:41:54;;;;;;;7.15;6.50;;;15.60;99.90;;;;;;5016168;28;20049;-85